createdAt,value
2023-06-19T00:00:01.691Z,49.10
2023-06-19T00:02:28.225Z,49.40
2023-06-19T00:04:54.746Z,49.30
2023-06-19T00:07:21.295Z,49.30
2023-06-19T00:09:47.823Z,49.40
2023-06-19T00:12:14.359Z,49.10
2023-06-19T00:17:07.953Z,49.10
2023-06-19T00:19:34.471Z,48.90
2023-06-19T00:22:00.998Z,49.10
2023-06-19T00:24:27.584Z,49.00
2023-06-19T00:26:54.124Z,49.00
2023-06-19T00:29:20.629Z,49.20
2023-06-19T00:31:47.151Z,49.10
2023-06-19T00:34:13.672Z,48.90
2023-06-19T00:36:40.176Z,48.90
2023-06-19T00:39:06.692Z,48.70
2023-06-19T00:41:33.201Z,48.80
2023-06-19T00:43:59.675Z,48.80
2023-06-19T00:48:53.284Z,48.60
2023-06-19T00:51:19.947Z,48.70
2023-06-19T00:56:13.573Z,48.60
2023-06-19T00:58:40.086Z,48.70
2023-06-19T01:01:09.179Z,48.60
2023-06-19T01:03:36.825Z,48.60
2023-06-19T01:06:03.508Z,48.70
2023-06-19T01:08:30.052Z,48.60
2023-06-19T01:10:56.568Z,48.70
2023-06-19T01:13:23.113Z,48.70
2023-06-19T01:15:49.665Z,48.70
2023-06-19T01:18:16.198Z,48.70
2023-06-19T01:20:42.706Z,48.70
2023-06-19T01:25:36.286Z,48.60
2023-06-19T01:28:02.807Z,48.60
2023-06-19T01:30:29.311Z,48.60
2023-06-19T01:35:22.899Z,48.80
2023-06-19T01:37:49.458Z,48.60
2023-06-19T01:40:16.070Z,48.60
2023-06-19T01:42:42.596Z,48.60
2023-06-19T01:45:09.099Z,48.60
2023-06-19T01:47:35.668Z,48.60
2023-06-19T01:50:02.182Z,48.50
2023-06-19T01:52:28.831Z,48.50
2023-06-19T01:54:55.354Z,48.60
2023-06-19T01:57:21.892Z,48.80
2023-06-19T01:59:48.390Z,48.70
2023-06-19T02:02:14.923Z,48.70
2023-06-19T02:04:41.467Z,48.80
2023-06-19T02:07:07.989Z,48.70
2023-06-19T02:09:34.499Z,48.60
2023-06-19T02:12:01.010Z,48.70
2023-06-19T02:14:27.556Z,48.60
2023-06-19T02:19:21.086Z,48.70
2023-06-19T02:21:47.610Z,48.80
2023-06-19T02:24:14.162Z,48.70
2023-06-19T02:26:40.713Z,48.60
2023-06-19T02:29:07.272Z,49.30
2023-06-19T02:31:33.804Z,48.70
2023-06-19T02:34:00.361Z,48.60
2023-06-19T02:36:26.840Z,49.10
2023-06-19T02:38:53.332Z,48.70
2023-06-19T02:41:19.840Z,49.10
2023-06-19T02:43:46.361Z,48.50
2023-06-19T02:46:13.651Z,48.50
2023-06-19T02:48:40.249Z,48.70
2023-06-19T02:51:06.771Z,49.20
2023-06-19T02:56:00.351Z,48.60
2023-06-19T02:58:26.885Z,48.70
2023-06-19T03:00:53.420Z,48.70
2023-06-19T03:03:20.034Z,48.40
2023-06-19T03:05:46.656Z,48.70
2023-06-19T03:08:13.191Z,48.70
2023-06-19T03:10:39.698Z,48.60
2023-06-19T03:13:06.233Z,48.60
2023-06-19T03:15:32.737Z,48.80
2023-06-19T03:17:59.302Z,49.10
2023-06-19T03:20:26.211Z,49.00
2023-06-19T03:22:53.068Z,48.70
2023-06-19T03:25:19.609Z,47.70
2023-06-19T03:27:46.211Z,48.70
2023-06-19T03:30:12.718Z,48.80
2023-06-19T03:32:39.271Z,48.90
2023-06-19T03:35:05.807Z,48.80
2023-06-19T03:37:32.330Z,49.20
2023-06-19T03:39:58.834Z,48.60
2023-06-19T03:42:25.344Z,48.80
2023-06-19T03:44:51.860Z,48.70
2023-06-19T03:47:18.385Z,49.10
2023-06-19T03:49:44.907Z,49.00
2023-06-19T03:52:11.399Z,49.20
2023-06-19T03:54:37.927Z,48.60
2023-06-19T03:59:31.508Z,48.40
2023-06-19T04:01:58.128Z,48.80
2023-06-19T04:06:51.792Z,48.80
2023-06-19T04:09:18.348Z,48.50
2023-06-19T04:11:44.888Z,48.50
2023-06-19T04:14:11.411Z,48.80
2023-06-19T04:16:37.936Z,48.70
2023-06-19T04:19:04.447Z,48.70
2023-06-19T04:21:30.950Z,48.70
2023-06-19T04:23:57.496Z,48.70
2023-06-19T04:26:24.086Z,48.30
2023-06-19T04:28:50.593Z,48.80
2023-06-19T04:31:17.167Z,49.30
2023-06-19T04:33:43.665Z,50.50
2023-06-19T04:38:37.242Z,52.30
2023-06-19T04:41:03.785Z,52.50
2023-06-19T04:43:30.322Z,52.60
2023-06-19T04:45:56.905Z,52.90
2023-06-19T04:48:23.547Z,52.80
2023-06-19T04:50:50.111Z,52.80
2023-06-19T04:53:16.628Z,53.40
2023-06-19T04:55:43.141Z,53.10
2023-06-19T05:00:36.755Z,53.30
2023-06-19T05:03:03.477Z,53.60
2023-06-19T05:05:30.048Z,54.10
2023-06-19T05:07:56.580Z,54.40
2023-06-19T05:10:23.346Z,53.90
2023-06-19T05:12:50.079Z,54.50
2023-06-19T05:15:16.727Z,54.40
2023-06-19T05:17:43.441Z,54.60
2023-06-19T05:20:09.993Z,54.70
2023-06-19T05:22:36.494Z,54.40
2023-06-19T05:25:03.001Z,54.20
2023-06-19T05:27:29.550Z,55.00
2023-06-19T05:29:56.056Z,54.60
2023-06-19T05:34:49.645Z,54.90
2023-06-19T05:37:16.170Z,54.80
2023-06-19T05:39:42.702Z,55.20
2023-06-19T05:42:09.253Z,55.20
2023-06-19T05:44:35.759Z,54.60
2023-06-19T05:47:02.268Z,55.00
2023-06-19T05:49:28.779Z,55.00
2023-06-19T05:54:22.373Z,54.20
2023-06-19T05:56:49.017Z,54.80
2023-06-19T05:59:15.538Z,54.50
2023-06-19T06:01:42.208Z,55.50
2023-06-19T06:04:08.811Z,55.60
2023-06-19T06:06:35.337Z,55.40
2023-06-19T06:09:01.849Z,55.70
2023-06-19T06:11:28.392Z,55.60
2023-06-19T06:13:54.913Z,55.80
2023-06-19T06:16:21.480Z,54.90
2023-06-19T06:18:48.038Z,55.50
2023-06-19T06:21:14.601Z,55.90
2023-06-19T06:23:41.105Z,56.00
2023-06-19T06:26:07.640Z,56.70
2023-06-19T06:28:34.208Z,56.10
2023-06-19T06:33:27.819Z,56.30
2023-06-19T06:35:54.332Z,57.10
2023-06-19T06:38:20.829Z,56.80
2023-06-19T06:43:14.388Z,56.80
2023-06-19T06:45:40.982Z,56.70
2023-06-19T06:48:08.060Z,57.60
2023-06-19T06:50:34.716Z,56.70
2023-06-19T06:53:01.220Z,57.20
2023-06-19T06:55:27.743Z,56.90
2023-06-19T06:57:54.281Z,56.70
2023-06-19T07:00:20.877Z,56.30
2023-06-19T07:02:47.592Z,56.60
2023-06-19T07:05:14.246Z,56.30
2023-06-19T07:07:40.742Z,56.20
2023-06-19T07:10:07.295Z,56.90
2023-06-19T07:12:33.811Z,56.50
2023-06-19T07:15:00.318Z,56.10
2023-06-19T07:17:26.847Z,56.60
2023-06-19T07:19:53.388Z,56.20
2023-06-19T07:22:19.941Z,57.50
2023-06-19T07:24:46.521Z,56.60
2023-06-19T07:27:13.069Z,56.90
2023-06-19T07:29:39.587Z,56.70
2023-06-19T07:32:06.099Z,55.80
2023-06-19T07:34:32.614Z,56.10
2023-06-19T07:36:59.175Z,56.10
2023-06-19T07:39:25.794Z,55.90
2023-06-19T07:41:52.311Z,55.60
2023-06-19T07:44:18.848Z,55.20
2023-06-19T07:46:45.370Z,55.30
2023-06-19T07:49:11.962Z,55.40
2023-06-19T07:51:38.472Z,55.10
2023-06-19T07:54:05.012Z,54.80
2023-06-19T07:56:31.528Z,55.10
2023-06-19T07:58:58.088Z,55.00
2023-06-19T08:01:24.580Z,54.70
2023-06-19T08:06:18.284Z,54.90
2023-06-19T08:08:44.801Z,54.50
2023-06-19T08:11:11.290Z,54.50
2023-06-19T08:13:37.854Z,54.60
2023-06-19T08:16:04.397Z,54.50
2023-06-19T08:18:30.903Z,54.60
2023-06-19T08:20:57.453Z,54.00
2023-06-19T08:23:23.959Z,54.30
2023-06-19T08:25:50.479Z,54.40
2023-06-19T08:28:17.034Z,54.30
2023-06-19T08:30:43.551Z,54.70
2023-06-19T08:33:10.123Z,54.10
2023-06-19T08:35:36.673Z,53.80
2023-06-19T08:38:03.214Z,54.70
2023-06-19T08:40:29.806Z,54.20
2023-06-19T08:42:56.343Z,53.80
2023-06-19T08:45:22.872Z,53.80
2023-06-19T08:47:49.432Z,53.60
2023-06-19T08:50:16.083Z,53.90
2023-06-19T08:52:42.601Z,53.70
2023-06-19T08:57:36.240Z,54.40
2023-06-19T09:00:02.776Z,53.30
2023-06-19T09:02:29.429Z,53.40
2023-06-19T09:04:56.002Z,53.90
2023-06-19T09:07:22.604Z,53.60
2023-06-19T09:09:49.258Z,53.10
2023-06-19T09:12:15.765Z,53.10
2023-06-19T09:17:11.723Z,53.20
2023-06-19T09:19:38.723Z,53.20
2023-06-19T09:22:05.250Z,53.00
2023-06-19T09:24:31.836Z,53.10
2023-06-19T09:29:25.370Z,53.20
2023-06-19T09:31:51.900Z,53.30
2023-06-19T09:34:18.440Z,53.30
2023-06-19T09:36:44.957Z,53.60
2023-06-19T09:39:11.468Z,53.20
2023-06-19T09:41:37.996Z,52.90
2023-06-19T09:44:04.536Z,53.00
2023-06-19T09:46:31.060Z,52.90
2023-06-19T09:48:57.618Z,52.90
2023-06-19T09:51:24.160Z,52.80
2023-06-19T09:53:50.697Z,52.90
2023-06-19T09:56:17.243Z,54.10
2023-06-19T10:01:10.899Z,53.60
2023-06-19T10:03:37.505Z,53.00
2023-06-19T10:06:04.116Z,52.60
2023-06-19T10:08:30.641Z,53.40
2023-06-19T10:10:57.210Z,53.50
2023-06-19T10:13:23.768Z,52.90
2023-06-19T10:15:50.302Z,53.00
2023-06-19T10:18:16.801Z,53.80
2023-06-19T10:20:46.226Z,52.80
2023-06-19T10:23:13.814Z,53.00
2023-06-19T10:25:40.394Z,52.90
2023-06-19T10:28:06.955Z,52.70
2023-06-19T10:30:33.496Z,52.70
2023-06-19T10:33:00.094Z,53.70
2023-06-19T10:35:26.679Z,52.80
2023-06-19T10:37:53.201Z,52.80
2023-06-19T10:42:46.835Z,52.90
2023-06-19T10:47:40.983Z,52.40
2023-06-19T10:50:08.392Z,53.20
2023-06-19T10:55:03.368Z,52.30
2023-06-19T10:57:29.884Z,52.30
2023-06-19T10:59:56.406Z,52.50
2023-06-19T11:02:23.077Z,53.00
2023-06-19T11:04:49.707Z,53.10
2023-06-19T11:07:16.222Z,52.70
2023-06-19T11:09:44.811Z,52.40
2023-06-19T11:12:11.608Z,52.40
2023-06-19T11:14:38.099Z,52.50
2023-06-19T11:17:04.707Z,52.60
2023-06-19T11:19:31.272Z,52.50
2023-06-19T11:21:57.771Z,52.40
2023-06-19T11:26:51.848Z,52.90
2023-06-19T11:29:19.017Z,52.30
2023-06-19T11:31:45.532Z,51.80
2023-06-19T11:36:39.181Z,52.60
2023-06-19T11:39:05.745Z,52.40
2023-06-19T11:43:59.329Z,52.30
2023-06-19T11:46:25.866Z,52.20
2023-06-19T11:49:06.486Z,51.80
2023-06-19T11:51:34.046Z,51.90
2023-06-19T11:54:00.586Z,52.10
2023-06-19T11:56:27.166Z,52.30
2023-06-19T11:58:53.697Z,52.00
2023-06-19T12:01:20.226Z,52.30
2023-06-19T12:03:46.864Z,52.20
2023-06-19T12:06:13.579Z,52.40
2023-06-19T12:08:40.094Z,51.80
2023-06-19T12:11:06.623Z,51.80
2023-06-19T12:13:33.157Z,52.50
2023-06-19T12:15:59.705Z,52.50
2023-06-19T12:18:26.241Z,53.20
2023-06-19T12:20:52.732Z,51.90
2023-06-19T12:23:19.225Z,52.40
2023-06-19T12:25:45.719Z,52.20
2023-06-19T12:30:39.350Z,53.00
2023-06-19T12:33:05.984Z,51.50
2023-06-19T12:37:59.585Z,51.90
2023-06-19T12:40:26.279Z,52.30
2023-06-19T12:45:19.981Z,52.50
2023-06-19T12:47:46.547Z,52.20
2023-06-19T12:50:13.117Z,52.60
2023-06-19T12:52:39.626Z,51.90
2023-06-19T12:55:06.145Z,52.90
2023-06-19T12:57:32.689Z,51.70
2023-06-19T12:59:59.210Z,53.20
2023-06-19T13:02:25.898Z,51.60
2023-06-19T13:04:52.569Z,51.90
2023-06-19T13:07:19.108Z,51.90
2023-06-19T13:09:45.589Z,53.00
2023-06-19T13:12:12.099Z,52.10
2023-06-19T13:14:38.621Z,52.20
2023-06-19T13:17:05.239Z,52.10
2023-06-19T13:19:31.739Z,52.40
2023-06-19T13:21:58.273Z,51.70
2023-06-19T13:26:51.959Z,52.00
2023-06-19T13:29:18.464Z,51.90
2023-06-19T13:31:44.954Z,51.80
2023-06-19T13:36:38.599Z,52.50
2023-06-19T13:39:05.175Z,52.70
2023-06-19T13:41:31.693Z,51.90
2023-06-19T13:43:58.228Z,52.00
2023-06-19T13:46:24.790Z,52.80
2023-06-19T13:48:51.342Z,52.00
2023-06-19T13:51:17.870Z,53.10
2023-06-19T13:53:44.365Z,51.70
2023-06-19T13:56:10.870Z,52.10
2023-06-19T13:58:37.378Z,52.90
2023-06-19T14:01:03.973Z,52.00
2023-06-19T14:03:30.646Z,52.00
2023-06-19T14:05:57.191Z,52.10
2023-06-19T14:08:23.682Z,53.00
2023-06-19T14:10:50.208Z,52.00
2023-06-19T14:13:16.729Z,51.90
2023-06-19T14:15:43.229Z,51.70
2023-06-19T14:18:09.783Z,51.70
2023-06-19T14:20:36.314Z,52.20
2023-06-19T14:23:02.848Z,52.10
2023-06-19T14:25:29.366Z,51.80
2023-06-19T14:27:56.002Z,51.70
2023-06-19T14:30:22.834Z,51.70
2023-06-19T14:35:16.674Z,52.10
2023-06-19T14:37:43.249Z,51.60
2023-06-19T14:40:09.858Z,51.80
2023-06-19T14:45:03.523Z,52.70
2023-06-19T14:47:30.120Z,52.30
2023-06-19T14:52:23.746Z,52.20
2023-06-19T14:54:50.279Z,51.90
2023-06-19T14:59:45.716Z,52.90
2023-06-19T15:02:12.421Z,52.10
2023-06-19T15:07:07.775Z,52.90
2023-06-19T15:09:34.300Z,54.10
2023-06-19T15:12:00.836Z,54.10
2023-06-19T15:14:27.338Z,54.00
2023-06-19T15:19:20.880Z,53.60
2023-06-19T15:21:47.355Z,53.80
2023-06-19T15:24:13.941Z,53.80
2023-06-19T15:26:40.530Z,54.50
2023-06-19T15:29:07.094Z,54.30
2023-06-19T15:31:33.607Z,53.40
2023-06-19T15:34:00.096Z,53.50
2023-06-19T15:38:53.622Z,53.40
2023-06-19T15:41:20.117Z,53.10
2023-06-19T15:46:13.733Z,53.20
2023-06-19T15:48:40.257Z,53.60
2023-06-19T15:51:06.744Z,53.90
2023-06-19T15:53:33.268Z,53.10
2023-06-19T15:55:59.773Z,53.50
2023-06-19T15:58:26.303Z,54.00
2023-06-19T16:00:52.843Z,53.90
2023-06-19T16:03:19.504Z,53.70
2023-06-19T16:05:57.795Z,53.80
2023-06-19T16:08:32.463Z,53.30
2023-06-19T16:10:58.965Z,52.60
2023-06-19T16:13:25.479Z,53.30
2023-06-19T16:15:52.076Z,53.90
2023-06-19T16:18:18.606Z,53.30
2023-06-19T16:20:45.120Z,52.80
2023-06-19T16:23:11.644Z,53.10
2023-06-19T16:25:38.160Z,53.00
2023-06-19T16:28:04.724Z,53.90
2023-06-19T16:30:31.209Z,53.50
2023-06-19T16:32:57.757Z,53.30
2023-06-19T16:35:24.291Z,53.20
2023-06-19T16:37:50.836Z,53.00
2023-06-19T16:40:17.367Z,53.00
2023-06-19T16:42:43.959Z,54.00
2023-06-19T16:45:10.462Z,53.20
2023-06-19T16:47:36.994Z,53.30
2023-06-19T16:50:03.564Z,52.60
2023-06-19T16:52:30.116Z,53.40
2023-06-19T16:54:56.602Z,52.80
2023-06-19T16:57:23.116Z,52.90
2023-06-19T16:59:49.601Z,53.50
2023-06-19T17:04:43.157Z,53.10
2023-06-19T17:07:09.836Z,53.10
2023-06-19T17:09:36.357Z,53.10
2023-06-19T17:14:29.945Z,53.70
2023-06-19T17:16:56.517Z,52.60
2023-06-19T17:21:50.112Z,52.70
2023-06-19T17:24:18.708Z,53.50
2023-06-19T17:26:45.670Z,52.90
2023-06-19T17:29:12.181Z,52.90
2023-06-19T17:31:38.682Z,53.60
2023-06-19T17:34:05.251Z,52.90
2023-06-19T17:36:31.787Z,52.70
2023-06-19T17:38:58.333Z,53.30
2023-06-19T17:41:24.865Z,53.00
2023-06-19T17:43:51.421Z,53.90
2023-06-19T17:46:17.993Z,53.60
2023-06-19T17:48:44.544Z,53.00
2023-06-19T17:51:11.066Z,53.60
2023-06-19T17:53:37.632Z,52.60
2023-06-19T17:56:04.220Z,53.80
2023-06-19T17:58:30.786Z,52.90
2023-06-19T18:00:57.312Z,53.50
2023-06-19T18:03:23.891Z,53.40
2023-06-19T18:05:50.490Z,53.20
2023-06-19T18:08:16.972Z,53.00
2023-06-19T18:10:43.461Z,53.00
2023-06-19T18:13:09.947Z,53.80
2023-06-19T18:15:36.457Z,53.90
2023-06-19T18:18:03.054Z,53.20
2023-06-19T18:22:56.678Z,53.10
2023-06-19T18:25:23.176Z,53.50
2023-06-19T18:27:49.690Z,53.00
2023-06-19T18:32:43.413Z,52.60
2023-06-19T18:35:09.979Z,53.70
2023-06-19T18:40:03.555Z,53.70
2023-06-19T18:42:30.093Z,54.60
2023-06-19T18:44:56.619Z,55.20
2023-06-19T18:47:23.169Z,55.80
2023-06-19T18:49:49.690Z,55.30
2023-06-19T18:52:16.222Z,55.50
2023-06-19T18:57:09.809Z,56.00
2023-06-19T18:59:36.313Z,56.40
2023-06-19T19:02:03.045Z,56.10
2023-06-19T19:04:29.598Z,56.60
2023-06-19T19:06:56.102Z,56.70
2023-06-19T19:09:22.644Z,57.00
2023-06-19T19:11:49.173Z,56.90
2023-06-19T19:14:15.728Z,56.40
2023-06-19T19:16:42.274Z,56.60
2023-06-19T19:19:08.791Z,56.30
2023-06-19T19:24:02.431Z,56.30
2023-06-19T19:26:29.061Z,57.50
2023-06-19T19:28:55.609Z,58.50
2023-06-19T19:31:22.108Z,58.50
2023-06-19T19:36:15.742Z,57.50
2023-06-19T19:38:42.325Z,57.40
2023-06-19T19:43:35.923Z,56.80
2023-06-19T19:46:02.585Z,57.10
2023-06-19T19:50:56.217Z,56.00
2023-06-19T19:53:22.726Z,56.20
2023-06-19T19:55:49.229Z,56.20
2023-06-19T20:03:09.871Z,55.60
2023-06-19T20:05:36.430Z,55.60
2023-06-19T20:08:02.943Z,55.30
2023-06-19T20:10:29.474Z,55.50
2023-06-19T20:12:55.998Z,55.80
2023-06-19T20:15:22.497Z,55.70
2023-06-19T20:17:49.080Z,55.10
2023-06-19T20:20:15.635Z,55.10
2023-06-19T20:22:42.180Z,55.60
2023-06-19T20:25:08.692Z,55.70
2023-06-19T20:27:35.212Z,54.80
2023-06-19T20:30:01.726Z,54.80
2023-06-19T20:32:28.273Z,54.60
2023-06-19T20:34:54.830Z,55.00
2023-06-19T20:39:48.450Z,54.80
2023-06-19T20:42:14.948Z,54.60
2023-06-19T20:44:41.476Z,54.90
2023-06-19T20:47:07.997Z,54.50
2023-06-19T20:49:34.532Z,55.10
2023-06-19T20:52:01.071Z,54.50
2023-06-19T20:54:27.600Z,54.70
2023-06-19T20:56:54.095Z,55.30
2023-06-19T21:01:47.719Z,54.30
2023-06-19T21:04:14.215Z,54.00
2023-06-19T21:09:07.808Z,54.80
2023-06-19T21:11:34.421Z,55.00
2023-06-19T21:14:00.918Z,54.90
2023-06-19T21:16:27.486Z,55.00
2023-06-19T21:18:54.059Z,54.10
2023-06-19T21:21:20.618Z,54.20
2023-06-19T21:23:47.159Z,54.40
2023-06-19T21:26:13.659Z,54.70
2023-06-19T21:28:40.122Z,53.90
2023-06-19T21:31:06.647Z,53.90
2023-06-19T21:33:33.182Z,53.90
2023-06-19T21:35:59.728Z,53.80
2023-06-19T21:38:26.207Z,54.00
2023-06-19T21:40:52.696Z,54.00
2023-06-19T21:43:19.247Z,54.60
2023-06-19T21:45:45.788Z,53.90
2023-06-19T21:50:39.504Z,54.10
2023-06-19T21:53:06.033Z,54.50
2023-06-19T21:55:32.593Z,53.50
2023-06-19T21:58:00.498Z,53.30
2023-06-19T22:00:27.734Z,53.60
2023-06-19T22:02:55.113Z,53.10
2023-06-19T22:05:21.696Z,53.30
2023-06-19T22:07:48.190Z,53.10
2023-06-19T22:10:14.722Z,53.20
2023-06-19T22:12:41.246Z,53.70
2023-06-19T22:15:07.784Z,54.00
2023-06-19T22:17:34.361Z,53.20
2023-06-19T22:20:00.917Z,53.50
2023-06-19T22:22:27.424Z,53.20
2023-06-19T22:24:53.952Z,53.00
2023-06-19T22:29:47.523Z,53.10
2023-06-19T22:32:14.003Z,53.10
2023-06-19T22:34:40.533Z,54.00
2023-06-19T22:37:07.068Z,52.60
2023-06-19T22:39:33.553Z,52.90
2023-06-19T22:42:00.402Z,52.90
2023-06-19T22:44:26.916Z,53.50
2023-06-19T22:46:53.423Z,53.20
2023-06-19T22:49:19.889Z,53.20
2023-06-19T22:51:46.388Z,53.10
2023-06-19T22:54:12.865Z,52.90
2023-06-19T22:56:39.377Z,52.70
2023-06-19T22:59:05.864Z,52.90
2023-06-19T23:01:32.369Z,53.10
2023-06-19T23:03:58.898Z,53.10
2023-06-19T23:06:25.433Z,53.60
2023-06-19T23:08:51.940Z,53.50
2023-06-19T23:11:18.429Z,53.60
2023-06-19T23:13:44.953Z,53.00
2023-06-19T23:16:11.453Z,53.20
2023-06-19T23:18:37.949Z,53.30
2023-06-19T23:21:04.454Z,54.10
2023-06-19T23:23:30.999Z,52.60
2023-06-19T23:25:57.497Z,52.60
2023-06-19T23:28:23.992Z,52.80
2023-06-19T23:30:50.567Z,53.50
2023-06-19T23:35:44.139Z,52.80
2023-06-19T23:38:10.623Z,52.60
2023-06-19T23:40:37.124Z,52.80
2023-06-19T23:45:30.674Z,52.90
2023-06-19T23:47:57.256Z,52.70
2023-06-19T23:52:50.874Z,52.80
2023-06-19T23:55:17.380Z,52.80
2023-06-19T23:57:43.871Z,52.70
